createdAt,value
2023-07-31T00:00:19.482Z,76.28
2023-07-31T00:02:46.519Z,76.28
2023-07-31T00:05:12.893Z,76.30
2023-07-31T00:07:39.720Z,76.28
2023-07-31T00:10:07.756Z,76.27
2023-07-31T00:12:34.173Z,76.31
2023-07-31T00:15:01.684Z,76.32
2023-07-31T00:17:28.614Z,76.49
2023-07-31T00:19:55.167Z,76.47
2023-07-31T00:22:56.439Z,76.63
2023-07-31T00:25:22.914Z,76.71
2023-07-31T00:27:49.338Z,76.72
2023-07-31T00:30:16.246Z,76.66
2023-07-31T00:32:42.834Z,76.87
2023-07-31T00:35:11.659Z,76.79
2023-07-31T00:37:38.142Z,76.96
2023-07-31T00:40:05.119Z,76.87
2023-07-31T00:42:32.333Z,76.92
2023-07-31T00:44:58.862Z,76.91
2023-07-31T00:47:25.699Z,77.06
2023-07-31T00:49:52.557Z,77.13
2023-07-31T00:52:31.665Z,77.27
2023-07-31T00:55:01.727Z,77.61
2023-07-31T00:57:28.238Z,77.80
2023-07-31T00:59:55.933Z,77.96
2023-07-31T01:05:44.756Z,77.86
2023-07-31T01:08:24.963Z,77.84
2023-07-31T01:11:01.444Z,77.90
2023-07-31T01:13:28.907Z,77.71
2023-07-31T01:15:55.857Z,77.69
2023-07-31T01:18:22.758Z,77.76
2023-07-31T01:20:59.263Z,77.75
2023-07-31T01:23:45.179Z,77.79
2023-07-31T01:26:21.967Z,77.68
2023-07-31T01:29:09.806Z,77.85
2023-07-31T01:31:37.662Z,77.95
2023-07-31T01:34:04.881Z,78.21
2023-07-31T01:36:32.636Z,78.16
2023-07-31T01:39:03.106Z,78.35
2023-07-31T01:41:29.488Z,78.46
2023-07-31T01:43:56.715Z,78.47
2023-07-31T01:46:23.211Z,78.24
2023-07-31T01:48:49.668Z,78.29
2023-07-31T01:51:16.134Z,78.41
2023-07-31T01:53:42.491Z,78.31
2023-07-31T01:56:09.010Z,78.30
2023-07-31T01:58:35.445Z,78.42
2023-07-31T02:01:01.936Z,78.30
2023-07-31T02:03:28.633Z,78.30
2023-07-31T02:05:56.011Z,78.26
2023-07-31T02:08:22.531Z,78.17
2023-07-31T02:10:49.338Z,78.14
2023-07-31T02:13:16.194Z,78.20
2023-07-31T02:15:42.611Z,78.11
2023-07-31T02:18:10.431Z,77.94
2023-07-31T02:20:36.988Z,77.97
2023-07-31T02:23:03.494Z,77.89
2023-07-31T02:25:30.141Z,77.99
2023-07-31T02:27:56.909Z,78.14
2023-07-31T02:30:23.417Z,78.21
2023-07-31T02:32:50.246Z,78.08
2023-07-31T02:35:17.133Z,78.26
2023-07-31T02:37:43.895Z,78.23
2023-07-31T02:40:10.960Z,78.30
2023-07-31T02:42:37.397Z,78.56
2023-07-31T02:45:04.195Z,78.54
2023-07-31T02:47:30.659Z,78.66
2023-07-31T02:49:57.457Z,78.68
2023-07-31T02:52:23.719Z,78.86
2023-07-31T02:54:50.350Z,78.78
2023-07-31T02:57:17.497Z,78.82
2023-07-31T02:59:45.993Z,78.95
2023-07-31T03:02:13.580Z,78.89
2023-07-31T03:04:40.510Z,79.04
2023-07-31T03:07:06.943Z,79.20
2023-07-31T03:09:33.720Z,79.12
2023-07-31T03:12:00.656Z,79.19
2023-07-31T03:14:30.270Z,79.13
2023-07-31T03:16:56.804Z,79.20
2023-07-31T03:19:24.048Z,79.17
2023-07-31T03:21:50.580Z,79.31
2023-07-31T03:24:16.908Z,79.41
2023-07-31T03:26:43.783Z,79.50
2023-07-31T03:29:10.379Z,79.58
2023-07-31T03:31:36.799Z,79.76
2023-07-31T03:34:03.842Z,79.81
2023-07-31T03:36:30.266Z,80.03
2023-07-31T03:38:56.630Z,79.98
2023-07-31T03:41:24.164Z,79.92
2023-07-31T03:43:56.725Z,80.12
2023-07-31T03:46:24.427Z,80.12
2023-07-31T03:48:51.349Z,80.15
2023-07-31T03:51:18.578Z,80.24
2023-07-31T03:54:01.345Z,80.20
2023-07-31T03:56:27.852Z,80.23
2023-07-31T03:58:54.218Z,80.25
2023-07-31T04:01:21.424Z,80.17
2023-07-31T04:03:47.766Z,80.31
2023-07-31T04:06:14.381Z,80.23
2023-07-31T04:08:41.342Z,80.58
2023-07-31T04:11:07.959Z,80.43
2023-07-31T04:13:34.414Z,80.53
2023-07-31T04:16:01.482Z,80.48
2023-07-31T04:18:27.836Z,80.44
2023-07-31T04:20:54.290Z,80.47
2023-07-31T04:23:20.936Z,80.57
2023-07-31T04:25:47.425Z,80.47
2023-07-31T04:28:13.861Z,80.55
2023-07-31T04:30:41.376Z,80.46
2023-07-31T04:33:07.822Z,80.64
2023-07-31T04:35:34.680Z,80.61
2023-07-31T04:38:01.921Z,80.56
2023-07-31T04:40:28.318Z,80.64
2023-07-31T04:42:54.877Z,80.49
2023-07-31T04:45:21.508Z,80.45
2023-07-31T04:47:47.960Z,80.52
2023-07-31T04:50:14.317Z,80.49
2023-07-31T04:52:40.873Z,80.37
2023-07-31T04:55:07.728Z,80.28
2023-07-31T04:57:34.365Z,80.14
2023-07-31T05:00:01.017Z,80.08
2023-07-31T05:02:27.587Z,80.13
2023-07-31T05:04:54.172Z,79.79
2023-07-31T05:07:20.872Z,79.71
2023-07-31T05:09:47.457Z,79.54
2023-07-31T05:12:13.945Z,79.30
2023-07-31T05:14:40.779Z,79.25
2023-07-31T05:17:07.468Z,79.30
2023-07-31T05:19:34.108Z,79.33
2023-07-31T05:22:01.125Z,79.12
2023-07-31T05:24:27.628Z,79.20
2023-07-31T05:26:54.624Z,78.87
2023-07-31T05:29:21.597Z,79.00
2023-07-31T05:31:48.320Z,79.12
2023-07-31T05:34:15.077Z,78.97
2023-07-31T05:36:42.770Z,78.85
2023-07-31T05:39:09.309Z,78.68
2023-07-31T05:41:36.539Z,78.18
2023-07-31T05:44:03.441Z,78.17
2023-07-31T05:46:30.065Z,78.09
2023-07-31T05:48:56.658Z,78.28
2023-07-31T05:51:23.380Z,77.99
2023-07-31T05:53:49.701Z,77.96
2023-07-31T05:56:19.057Z,77.89
2023-07-31T05:58:45.702Z,77.49
2023-07-31T06:01:12.124Z,77.33
2023-07-31T06:03:39.034Z,77.51
2023-07-31T06:06:06.448Z,76.90
2023-07-31T06:08:32.847Z,76.75
2023-07-31T06:10:59.671Z,76.67
2023-07-31T06:13:26.523Z,76.66
2023-07-31T06:15:52.969Z,76.62
2023-07-31T06:18:19.556Z,76.07
2023-07-31T06:20:46.008Z,76.34
2023-07-31T06:23:12.481Z,76.21
2023-07-31T06:25:38.897Z,75.97
2023-07-31T06:28:08.109Z,75.84
2023-07-31T06:30:37.283Z,75.54
2023-07-31T06:33:03.763Z,75.42
2023-07-31T06:35:30.534Z,74.75
2023-07-31T06:37:56.925Z,74.73
2023-07-31T06:40:32.215Z,74.10
2023-07-31T06:42:58.633Z,73.83
2023-07-31T06:45:25.152Z,73.54
2023-07-31T06:47:52.200Z,73.41
2023-07-31T06:50:18.907Z,73.37
2023-07-31T06:52:45.207Z,72.69
2023-07-31T06:55:20.686Z,72.40
2023-07-31T06:57:48.141Z,72.43
2023-07-31T07:00:14.826Z,72.14
2023-07-31T07:02:42.148Z,71.42
2023-07-31T07:05:09.289Z,71.07
2023-07-31T07:07:36.447Z,70.63
2023-07-31T07:10:04.355Z,70.21
2023-07-31T07:12:31.706Z,70.60
2023-07-31T07:15:00.815Z,70.64
2023-07-31T07:17:30.561Z,70.45
2023-07-31T07:19:57.463Z,70.08
2023-07-31T07:25:37.597Z,68.94
2023-07-31T07:28:27.106Z,68.25
2023-07-31T07:34:33.475Z,66.71
2023-07-31T07:40:25.291Z,66.45
2023-07-31T07:46:02.631Z,65.41
2023-07-31T07:49:02.990Z,64.29
2023-07-31T07:55:14.274Z,63.65
2023-07-31T07:58:34.064Z,63.39
2023-07-31T08:01:43.133Z,63.38
2023-07-31T08:07:53.218Z,62.14
2023-07-31T08:11:36.474Z,62.37
2023-07-31T08:19:51.781Z,61.25
2023-07-31T08:22:18.631Z,61.30
2023-07-31T08:24:45.556Z,60.29
2023-07-31T08:27:12.453Z,60.67
2023-07-31T08:29:39.488Z,60.40
2023-07-31T08:32:07.011Z,60.09
2023-07-31T08:34:34.404Z,60.01
2023-07-31T08:37:01.193Z,59.98
2023-07-31T08:39:28.763Z,59.53
2023-07-31T08:42:00.693Z,58.34
2023-07-31T08:44:27.731Z,57.85
2023-07-31T08:46:55.815Z,58.44
2023-07-31T08:49:23.852Z,58.29
2023-07-31T08:51:51.633Z,57.98
2023-07-31T08:54:18.129Z,58.23
2023-07-31T08:56:46.057Z,58.51
2023-07-31T08:59:15.893Z,58.47
2023-07-31T09:01:50.256Z,58.18
2023-07-31T09:04:19.835Z,58.27
2023-07-31T09:06:49.293Z,57.72
2023-07-31T09:09:16.014Z,57.41
2023-07-31T09:11:42.922Z,57.98
2023-07-31T09:14:10.158Z,57.46
2023-07-31T09:16:37.211Z,56.29
2023-07-31T09:19:05.554Z,56.57
2023-07-31T09:21:32.300Z,55.98
2023-07-31T09:23:59.100Z,55.24
2023-07-31T09:26:36.037Z,54.82
2023-07-31T09:29:12.117Z,54.72
2023-07-31T09:31:45.838Z,55.02
2023-07-31T09:34:12.701Z,55.17
2023-07-31T09:36:47.667Z,55.04
2023-07-31T09:39:18.171Z,54.64
2023-07-31T09:41:48.017Z,53.93
2023-07-31T09:44:14.636Z,54.70
2023-07-31T09:46:41.627Z,54.23
2023-07-31T09:49:10.197Z,54.00
2023-07-31T09:51:39.297Z,52.92
2023-07-31T09:54:24.628Z,51.90
2023-07-31T09:56:51.282Z,50.57
2023-07-31T09:59:22.963Z,51.04
2023-07-31T10:01:51.788Z,50.48
2023-07-31T10:04:21.637Z,49.75
2023-07-31T10:06:51.074Z,49.87
2023-07-31T10:09:19.776Z,50.43
2023-07-31T10:12:00.411Z,49.97
2023-07-31T10:14:29.073Z,49.54
2023-07-31T10:16:57.143Z,50.42
2023-07-31T10:19:24.068Z,49.54
2023-07-31T10:21:51.446Z,50.02
2023-07-31T10:24:18.535Z,49.60
2023-07-31T10:26:47.906Z,50.18
2023-07-31T10:29:16.815Z,50.67
2023-07-31T10:31:46.239Z,49.69
2023-07-31T10:34:13.841Z,48.90
2023-07-31T10:36:40.979Z,49.47
2023-07-31T10:39:37.798Z,49.16
2023-07-31T10:42:11.386Z,49.83
2023-07-31T10:44:38.143Z,49.46
2023-07-31T10:47:05.053Z,49.93
2023-07-31T10:49:33.434Z,49.54
2023-07-31T10:52:04.226Z,49.11
2023-07-31T10:54:30.674Z,48.16
2023-07-31T10:56:59.482Z,47.48
2023-07-31T10:59:35.839Z,47.03
2023-07-31T11:02:04.811Z,46.71
2023-07-31T11:04:32.651Z,46.01
2023-07-31T11:07:05.760Z,46.47
2023-07-31T11:09:35.102Z,45.50
2023-07-31T11:12:01.772Z,45.38
2023-07-31T11:14:29.590Z,45.95
2023-07-31T11:16:56.723Z,45.81
2023-07-31T11:19:26.776Z,46.11
2023-07-31T11:21:54.091Z,45.65
2023-07-31T11:24:22.204Z,45.14
2023-07-31T11:26:51.283Z,44.40
2023-07-31T11:29:17.790Z,45.07
2023-07-31T11:31:45.122Z,45.91
2023-07-31T11:34:11.739Z,45.90
2023-07-31T11:36:38.236Z,45.39
2023-07-31T11:39:12.112Z,44.26
2023-07-31T11:41:42.217Z,43.84
2023-07-31T11:44:25.120Z,44.71
2023-07-31T11:46:54.148Z,43.45
2023-07-31T11:49:21.932Z,43.74
2023-07-31T11:51:48.607Z,43.95
2023-07-31T11:54:16.454Z,43.70
2023-07-31T11:56:44.923Z,44.10
2023-07-31T11:59:13.511Z,43.75
2023-07-31T12:01:40.437Z,44.04
2023-07-31T12:04:07.919Z,44.68
2023-07-31T12:06:38.569Z,44.71
2023-07-31T12:09:06.969Z,45.66
2023-07-31T12:11:47.355Z,45.02
2023-07-31T12:14:25.732Z,44.40
2023-07-31T12:17:01.946Z,43.79
2023-07-31T12:19:30.550Z,44.43
2023-07-31T12:21:57.954Z,44.36
2023-07-31T12:24:24.736Z,43.61
2023-07-31T12:26:52.553Z,43.74
2023-07-31T12:29:19.338Z,43.71
2023-07-31T12:31:46.443Z,43.75
2023-07-31T12:34:22.517Z,43.30
2023-07-31T12:36:51.685Z,43.01
2023-07-31T12:39:18.214Z,43.98
2023-07-31T12:41:45.388Z,44.05
2023-07-31T12:44:12.337Z,42.09
2023-07-31T12:46:39.300Z,44.11
2023-07-31T12:49:06.313Z,43.09
2023-07-31T12:51:32.894Z,42.02
2023-07-31T12:53:59.372Z,41.95
2023-07-31T12:56:26.222Z,41.62
2023-07-31T12:58:52.799Z,41.94
2023-07-31T13:01:19.445Z,42.12
2023-07-31T13:03:46.490Z,41.95
2023-07-31T13:06:13.604Z,41.05
2023-07-31T13:08:40.455Z,40.46
2023-07-31T13:11:07.117Z,40.72
2023-07-31T13:13:33.856Z,40.69
2023-07-31T13:16:00.565Z,40.48
2023-07-31T13:18:27.241Z,40.86
2023-07-31T13:20:54.277Z,40.69
2023-07-31T13:23:20.954Z,39.57
2023-07-31T13:25:47.595Z,39.09
2023-07-31T13:28:14.255Z,38.60
2023-07-31T13:30:40.725Z,39.31
2023-07-31T13:33:12.398Z,39.39
2023-07-31T13:36:00.459Z,39.70
2023-07-31T13:38:27.572Z,40.04
2023-07-31T13:40:54.103Z,39.99
2023-07-31T13:43:20.830Z,39.84
2023-07-31T13:45:47.521Z,40.17
2023-07-31T13:48:17.232Z,39.93
2023-07-31T13:50:43.669Z,40.58
2023-07-31T13:53:10.584Z,40.44
2023-07-31T13:55:37.125Z,40.30
2023-07-31T13:58:04.956Z,40.92
2023-07-31T14:00:32.084Z,41.08
2023-07-31T14:02:58.886Z,40.97
2023-07-31T14:05:26.061Z,40.76
2023-07-31T14:07:52.760Z,40.89
2023-07-31T14:10:19.443Z,41.37
2023-07-31T14:12:45.985Z,41.69
2023-07-31T14:15:13.270Z,41.74
2023-07-31T14:17:40.176Z,41.56
2023-07-31T14:20:07.721Z,41.74
2023-07-31T14:22:35.410Z,42.11
2023-07-31T14:25:03.422Z,41.62
2023-07-31T14:27:29.950Z,42.12
2023-07-31T14:29:57.644Z,42.17
2023-07-31T14:32:26.081Z,42.58
2023-07-31T14:34:53.271Z,42.82
2023-07-31T14:37:20.326Z,43.35
2023-07-31T14:39:46.813Z,43.48
2023-07-31T14:42:13.570Z,43.33
2023-07-31T14:44:40.399Z,43.28
2023-07-31T14:47:06.905Z,44.30
2023-07-31T14:49:38.209Z,44.10
2023-07-31T14:52:05.426Z,43.92
2023-07-31T14:54:31.817Z,44.41
2023-07-31T14:56:59.970Z,44.49
2023-07-31T14:59:26.831Z,44.51
2023-07-31T15:01:53.862Z,44.67
2023-07-31T15:04:20.573Z,44.55
2023-07-31T15:06:47.970Z,44.73
2023-07-31T15:09:14.496Z,45.25
2023-07-31T15:11:41.250Z,45.48
2023-07-31T15:14:09.381Z,45.77
2023-07-31T15:16:36.300Z,45.93
2023-07-31T15:19:03.235Z,46.41
2023-07-31T15:21:29.788Z,46.33
2023-07-31T15:23:56.545Z,46.76
2023-07-31T15:26:23.257Z,46.73
2023-07-31T15:29:02.963Z,46.52
2023-07-31T15:31:29.220Z,46.70
2023-07-31T15:33:55.818Z,46.68
2023-07-31T15:36:23.082Z,46.64
2023-07-31T15:38:51.570Z,47.05
2023-07-31T15:41:21.157Z,47.29
2023-07-31T15:43:49.193Z,47.80
2023-07-31T15:46:16.334Z,48.10
2023-07-31T15:48:42.889Z,48.51
2023-07-31T15:51:10.173Z,48.66
2023-07-31T15:53:36.808Z,48.16
2023-07-31T15:56:03.362Z,47.98
2023-07-31T15:58:30.290Z,47.89
2023-07-31T16:00:56.932Z,47.41
2023-07-31T16:03:23.468Z,46.61
2023-07-31T16:05:50.460Z,46.20
2023-07-31T16:08:17.339Z,45.50
2023-07-31T16:10:44.150Z,45.51
2023-07-31T16:13:11.078Z,45.58
2023-07-31T16:15:38.183Z,45.56
2023-07-31T16:18:04.890Z,45.76
2023-07-31T16:20:31.869Z,45.94
2023-07-31T16:23:11.185Z,45.55
2023-07-31T16:25:38.070Z,46.03
2023-07-31T16:28:04.676Z,45.70
2023-07-31T16:30:31.890Z,45.82
2023-07-31T16:32:59.010Z,45.68
2023-07-31T16:35:25.633Z,46.00
2023-07-31T16:37:52.237Z,46.12
2023-07-31T16:40:18.975Z,46.17
2023-07-31T16:42:45.463Z,46.40
2023-07-31T16:45:11.862Z,46.77
2023-07-31T16:47:38.518Z,47.15
2023-07-31T16:50:05.363Z,47.21
2023-07-31T16:52:31.962Z,47.19
2023-07-31T16:54:59.103Z,47.46
2023-07-31T16:57:26.398Z,47.63
2023-07-31T16:59:52.883Z,48.01
2023-07-31T17:02:19.884Z,48.16
2023-07-31T17:04:47.182Z,48.33
2023-07-31T17:07:14.296Z,48.36
2023-07-31T17:13:21.922Z,49.04
2023-07-31T17:15:48.515Z,49.66
2023-07-31T17:18:15.655Z,50.37
2023-07-31T17:20:42.082Z,51.23
2023-07-31T17:23:08.486Z,51.60
2023-07-31T17:25:35.099Z,51.83
2023-07-31T17:28:03.944Z,51.88
2023-07-31T17:30:30.465Z,51.87
2023-07-31T17:32:57.231Z,51.83
2023-07-31T17:35:23.990Z,51.97
2023-07-31T17:37:50.467Z,51.94
2023-07-31T17:40:17.584Z,52.06
2023-07-31T17:43:14.668Z,51.99
2023-07-31T17:45:46.087Z,52.08
2023-07-31T17:48:14.608Z,52.37
2023-07-31T17:50:43.463Z,52.67
2023-07-31T17:53:13.179Z,53.06
2023-07-31T17:55:41.386Z,53.41
2023-07-31T17:58:08.267Z,53.87
2023-07-31T18:00:36.127Z,54.23
2023-07-31T18:03:09.080Z,54.47
2023-07-31T18:05:39.441Z,54.74
2023-07-31T18:08:07.760Z,55.13
2023-07-31T18:10:34.826Z,55.34
2023-07-31T18:13:01.942Z,55.68
2023-07-31T18:15:28.602Z,55.86
2023-07-31T18:17:55.425Z,56.08
2023-07-31T18:20:25.285Z,56.32
2023-07-31T18:22:51.840Z,56.22
2023-07-31T18:25:18.182Z,56.50
2023-07-31T18:27:44.722Z,56.58
2023-07-31T18:30:14.570Z,56.84
2023-07-31T18:32:41.996Z,57.11
2023-07-31T18:35:13.275Z,57.50
2023-07-31T18:37:39.942Z,57.61
2023-07-31T18:40:10.559Z,57.88
2023-07-31T18:42:41.583Z,57.91
2023-07-31T18:45:15.226Z,57.93
2023-07-31T18:47:41.991Z,58.14
2023-07-31T18:50:08.807Z,58.21
2023-07-31T18:52:36.814Z,58.42
2023-07-31T18:55:03.590Z,58.54
2023-07-31T18:57:30.178Z,58.51
2023-07-31T18:59:56.855Z,58.38
2023-07-31T19:02:23.662Z,58.61
2023-07-31T19:04:50.241Z,58.95
2023-07-31T19:07:16.985Z,58.86
2023-07-31T19:09:51.196Z,59.03
2023-07-31T19:12:20.329Z,59.22
2023-07-31T19:14:47.845Z,59.41
2023-07-31T19:17:14.407Z,59.43
2023-07-31T19:19:43.563Z,59.54
2023-07-31T19:22:10.761Z,59.93
2023-07-31T19:24:37.784Z,60.40
2023-07-31T19:27:08.664Z,60.59
2023-07-31T19:29:38.817Z,60.78
2023-07-31T19:32:05.937Z,60.85
2023-07-31T19:34:33.391Z,61.18
2023-07-31T19:37:00.547Z,61.31
2023-07-31T19:39:27.105Z,61.39
2023-07-31T19:41:53.771Z,61.43
2023-07-31T19:44:20.478Z,61.48
2023-07-31T19:46:46.935Z,61.65
2023-07-31T19:49:13.683Z,61.51
2023-07-31T19:51:40.529Z,61.80
2023-07-31T19:54:07.308Z,61.81
2023-07-31T19:56:34.336Z,61.96
2023-07-31T19:59:01.074Z,62.10
2023-07-31T20:01:27.891Z,62.07
2023-07-31T20:03:55.372Z,62.24
2023-07-31T20:06:25.391Z,62.45
2023-07-31T20:08:51.958Z,62.46
2023-07-31T20:11:18.430Z,62.50
2023-07-31T20:13:45.612Z,62.79
2023-07-31T20:16:12.250Z,62.94
2023-07-31T20:18:41.829Z,63.06
2023-07-31T20:21:08.657Z,63.21
2023-07-31T20:23:42.946Z,63.43
2023-07-31T20:26:10.710Z,63.61
2023-07-31T20:28:37.323Z,63.72
2023-07-31T20:31:03.998Z,63.78
2023-07-31T20:33:31.382Z,64.06
2023-07-31T20:35:58.132Z,64.18
2023-07-31T20:38:24.837Z,64.23
2023-07-31T20:40:52.589Z,64.34
2023-07-31T20:43:19.397Z,64.60
2023-07-31T20:45:46.092Z,64.64
2023-07-31T20:48:14.263Z,64.90
2023-07-31T20:50:40.934Z,65.04
2023-07-31T20:53:07.699Z,65.08
2023-07-31T20:55:34.328Z,65.30
2023-07-31T20:58:01.300Z,65.34
2023-07-31T21:00:27.914Z,65.48
2023-07-31T21:02:55.207Z,65.43
2023-07-31T21:05:22.598Z,65.50
2023-07-31T21:07:49.396Z,65.61
2023-07-31T21:10:16.110Z,65.63
2023-07-31T21:12:42.586Z,65.70
2023-07-31T21:15:10.607Z,65.78
2023-07-31T21:17:38.720Z,65.91
2023-07-31T21:20:05.997Z,65.98
2023-07-31T21:22:32.386Z,66.14
2023-07-31T21:24:59.237Z,66.29
2023-07-31T21:27:25.720Z,66.37
2023-07-31T21:29:52.978Z,66.39
2023-07-31T21:32:20.246Z,66.39
2023-07-31T21:34:46.913Z,66.43
2023-07-31T21:37:13.434Z,66.56
2023-07-31T21:39:40.313Z,66.68
2023-07-31T21:42:07.626Z,66.74
2023-07-31T21:44:35.301Z,66.75
2023-07-31T21:47:02.085Z,66.98
2023-07-31T21:49:28.674Z,66.96
2023-07-31T21:51:55.174Z,67.16
2023-07-31T21:54:21.854Z,67.33
2023-07-31T21:56:48.502Z,67.53
2023-07-31T21:59:15.115Z,67.71
2023-07-31T22:01:41.930Z,67.89
2023-07-31T22:04:09.145Z,68.08
2023-07-31T22:06:35.748Z,68.23
2023-07-31T22:09:02.498Z,68.47
2023-07-31T22:11:29.022Z,68.67
2023-07-31T22:14:01.979Z,68.85
2023-07-31T22:16:29.256Z,68.97
2023-07-31T22:18:55.779Z,69.02
2023-07-31T22:21:22.327Z,69.17
2023-07-31T22:23:49.175Z,69.57
2023-07-31T22:26:15.580Z,69.64
2023-07-31T22:28:42.136Z,69.77
2023-07-31T22:31:09.025Z,69.98
2023-07-31T22:33:36.551Z,70.35
2023-07-31T22:36:02.963Z,70.52
2023-07-31T22:38:29.716Z,70.81
2023-07-31T22:40:57.754Z,70.86
2023-07-31T22:43:24.326Z,71.23
2023-07-31T22:45:51.109Z,71.27
2023-07-31T22:48:17.642Z,71.49
2023-07-31T22:50:44.171Z,71.66
2023-07-31T22:53:11.046Z,71.77
2023-07-31T22:55:37.483Z,71.84
2023-07-31T22:58:04.065Z,72.06
2023-07-31T23:00:31.053Z,72.23
2023-07-31T23:02:57.492Z,72.37
2023-07-31T23:05:24.495Z,72.34
2023-07-31T23:07:51.089Z,72.51
2023-07-31T23:10:17.831Z,72.56
2023-07-31T23:12:44.488Z,72.60
2023-07-31T23:15:11.071Z,72.71
2023-07-31T23:17:37.518Z,72.88
2023-07-31T23:20:04.165Z,72.90
2023-07-31T23:22:31.469Z,73.08
2023-07-31T23:24:57.993Z,72.92
2023-07-31T23:27:24.517Z,73.15
2023-07-31T23:29:51.709Z,73.17
2023-07-31T23:32:18.491Z,73.46
2023-07-31T23:34:44.971Z,73.53
2023-07-31T23:37:11.508Z,73.61
2023-07-31T23:39:38.031Z,73.79
2023-07-31T23:42:04.695Z,73.80
2023-07-31T23:44:31.289Z,73.85
2023-07-31T23:46:57.755Z,74.00
2023-07-31T23:49:24.214Z,74.02
2023-07-31T23:51:50.916Z,74.30
2023-07-31T23:54:17.410Z,74.53
2023-07-31T23:56:44.375Z,74.44
2023-07-31T23:59:12.528Z,74.60
